Time;durP1;ratioP1;P1;durP2;ratioP2;P2;SDS_P1;SDS_P2;PMS_P1;PMS_P2;Temp;Humidity;BMP_temperature;BMP_pressure;BME280_temperature;BME280_humidity;BME280_pressure;Samples;Min_cycle;Max_cycle;Signal;HPM_P1;HPM_P2
2024/01/06 00:01:21;;;;;;;20.17;18.02;;;;;;;3.20;100.00;94733.38;5043839;28;20099;-73
2024/01/06 00:03:46;;;;;;;10.85;9.85;;;;;;;3.20;100.00;94745.53;5050727;28;20509;-74
2024/01/06 00:06:13;;;;;;;8.50;7.70;;;;;;;3.21;100.00;94737.63;5050246;28;20031;-73
2024/01/06 00:08:38;;;;;;;7.78;7.07;;;;;;;3.18;100.00;94740.47;5052023;28;20716;-73
2024/01/06 00:11:04;;;;;;;21.95;15.60;;;;;;;3.17;100.00;94735.38;5042363;28;20017;-74
2024/01/06 00:13:29;;;;;;;17.73;14.88;;;;;;;3.21;100.00;94740.25;5046054;28;20039;-73
2024/01/06 00:15:55;;;;;;;20.67;18.73;;;;;;;3.26;100.00;94742.50;5047145;28;20067;-74
2024/01/06 00:18:20;;;;;;;20.27;18.08;;;;;;;3.28;100.00;94743.19;5048605;28;20039;-73
2024/01/06 00:20:46;;;;;;;18.17;15.02;;;;;;;3.26;100.00;94740.69;5050671;28;20040;-74
2024/01/06 00:23:11;;;;;;;16.60;12.95;;;;;;;3.27;100.00;94744.13;5042909;28;20052;-74
2024/01/06 00:25:36;;;;;;;15.43;12.88;;;;;;;3.26;100.00;94745.91;5045721;28;20139;-74
2024/01/06 00:28:02;;;;;;;12.25;10.95;;;;;;;3.25;100.00;94746.84;5049181;28;20021;-74
2024/01/06 00:30:27;;;;;;;12.27;11.07;;;;;;;3.28;100.00;94751.00;5045438;28;20432;-73
2024/01/06 00:32:53;;;;;;;16.40;14.90;;;;;;;3.23;100.00;94740.13;5045445;28;20037;-73
2024/01/06 00:35:18;;;;;;;38.13;26.45;;;;;;;3.24;100.00;94747.78;5048414;28;20025;-74
2024/01/06 00:37:43;;;;;;;93.43;61.42;;;;;;;3.26;100.00;94745.91;5050131;28;20017;-74
2024/01/06 00:40:09;;;;;;;46.92;40.17;;;;;;;3.28;100.00;94748.41;5046755;28;20049;-74
2024/01/06 00:42:34;;;;;;;44.60;32.17;;;;;;;3.29;100.00;94748.25;5046633;28;20032;-74
2024/01/06 00:45:00;;;;;;;21.65;16.70;;;;;;;3.30;100.00;94739.50;5045124;28;20081;-73
2024/01/06 00:47:25;;;;;;;13.48;12.27;;;;;;;3.27;100.00;94736.34;5040447;28;20046;-73
2024/01/06 00:49:51;;;;;;;20.67;15.77;;;;;;;3.27;100.00;94737.16;5046404;28;20045;-73
2024/01/06 00:52:16;;;;;;;16.13;12.30;;;;;;;3.24;100.00;94737.38;5047069;28;20029;-74
2024/01/06 00:54:41;;;;;;;15.98;12.63;;;;;;;3.24;100.00;94746.97;5043640;28;20017;-74
2024/01/06 00:57:07;;;;;;;17.05;14.30;;;;;;;3.26;100.00;94745.91;5042497;28;20131;-73
2024/01/06 00:59:32;;;;;;;15.13;11.25;;;;;;;3.25;100.00;94735.63;5046503;28;20583;-73
2024/01/06 01:01:58;;;;;;;65.00;47.35;;;;;;;3.21;100.00;94736.81;5043505;28;20102;-73
2024/01/06 01:04:23;;;;;;;52.08;33.58;;;;;;;3.20;100.00;94740.34;5043382;28;20453;-73
2024/01/06 01:06:48;;;;;;;25.77;20.55;;;;;;;3.21;100.00;94752.44;5044052;28;20017;-74
2024/01/06 01:09:14;;;;;;;17.17;15.25;;;;;;;3.19;100.00;94762.94;5044089;28;20041;-74
2024/01/06 01:11:40;;;;;;;12.52;11.23;;;;;;;3.22;100.00;94748.88;5045654;28;20021;-73
2024/01/06 01:14:06;;;;;;;12.63;11.15;;;;;;;3.23;100.00;94740.13;5040099;28;20021;-73
2024/01/06 01:16:32;;;;;;;11.70;10.70;;;;;;;3.21;100.00;94736.81;5044357;28;20021;-74
2024/01/06 01:18:58;;;;;;;9.32;8.40;;;;;;;3.18;100.00;94748.28;5042912;28;20047;-74
2024/01/06 01:21:23;;;;;;;7.93;7.22;;;;;;;3.19;100.00;94751.69;5044615;28;20103;-74
2024/01/06 01:23:49;;;;;;;25.02;16.63;;;;;;;3.17;100.00;94745.78;5044323;28;20128;-74
2024/01/06 01:26:14;;;;;;;60.17;33.53;;;;;;;3.15;100.00;94749.34;5044914;28;20022;-74
2024/01/06 01:28:39;;;;;;;65.93;35.40;;;;;;;3.16;100.00;94750.19;5047408;28;20098;-74
2024/01/06 01:31:05;;;;;;;10.85;9.60;;;;;;;3.15;100.00;94748.53;5043123;28;20080;-73
2024/01/06 01:33:30;;;;;;;15.63;10.50;;;;;;;3.18;100.00;94747.44;5047296;28;20613;-73
2024/01/06 01:35:55;;;;;;;11.68;9.35;;;;;;;3.22;100.00;94749.69;5045736;28;20021;-73
2024/01/06 01:38:21;;;;;;;9.18;8.38;;;;;;;3.19;100.00;94747.34;5046425;28;20025;-73
2024/01/06 01:40:46;;;;;;;8.55;7.90;;;;;;;3.21;100.00;94742.03;5045152;28;20040;-74
2024/01/06 01:43:21;;;;;;;9.63;8.73;;;;;;;3.22;100.00;94741.88;5045101;28;20060;-74
2024/01/06 01:45:52;;;;;;;8.38;7.57;;;;;;;3.25;100.00;94738.22;5051971;28;20036;-74
2024/01/06 01:48:20;;;;;;;7.50;6.88;;;;;;;3.27;100.00;94736.34;5046268;28;20060;-74
2024/01/06 01:50:46;;;;;;;23.58;13.57;;;;;;;3.22;100.00;94739.28;5060082;28;20116;-74
2024/01/06 01:53:13;;;;;;;14.98;11.48;;;;;;;3.21;100.00;94735.03;5045967;28;20076;-74
2024/01/06 01:55:40;;;;;;;45.10;31.00;;;;;;;3.22;100.00;94739.28;5042781;28;20021;-74
2024/01/06 01:58:06;;;;;;;15.65;12.85;;;;;;;3.21;100.00;94736.81;5044480;28;20028;-74
2024/01/06 02:00:32;;;;;;;10.05;9.23;;;;;;;3.19;100.00;94733.50;5046521;28;20029;-74
2024/01/06 02:02:59;;;;;;;9.57;8.77;;;;;;;3.22;100.00;94733.28;5041219;28;20025;-74
2024/01/06 02:05:25;;;;;;;7.45;6.75;;;;;;;3.20;100.00;94730.78;5047341;28;20128;-73
2024/01/06 02:07:51;;;;;;;7.97;7.38;;;;;;;3.18;100.00;94727.47;5046849;28;20057;-74
2024/01/06 02:10:17;;;;;;;7.35;6.63;;;;;;;3.21;100.00;94729.03;5048435;28;20138;-73
2024/01/06 02:12:42;;;;;;;9.43;7.63;;;;;;;3.25;100.00;94731.25;5045526;28;20029;-74
2024/01/06 02:15:08;;;;;;;12.70;11.48;;;;;;;3.28;100.00;94724.97;5042752;28;20079;-73
2024/01/06 02:17:33;;;;;;;8.60;7.80;;;;;;;3.28;100.00;94727.59;5047837;28;20079;-74
2024/01/06 02:19:59;;;;;;;8.70;7.30;;;;;;;3.28;100.00;94735.38;5052104;28;20029;-73
2024/01/06 02:22:24;;;;;;;10.13;8.93;;;;;;;3.33;100.00;94724.63;5048960;28;20018;-73
2024/01/06 02:24:50;;;;;;;10.82;9.60;;;;;;;3.29;100.00;94721.44;5050667;28;20076;-74
2024/01/06 02:27:15;;;;;;;10.00;9.00;;;;;;;3.26;100.00;94719.06;5047919;28;20107;-73
2024/01/06 02:29:40;;;;;;;13.15;11.57;;;;;;;3.28;100.00;94714.56;5048165;28;20021;-73
2024/01/06 02:32:06;;;;;;;13.00;10.95;;;;;;;3.23;100.00;94724.53;5049917;28;20078;-74
2024/01/06 02:34:32;;;;;;;12.35;9.65;;;;;;;3.22;100.00;94730.69;5045478;28;20048;-73
2024/01/06 02:36:58;;;;;;;12.57;10.95;;;;;;;3.25;100.00;94722.63;5049435;28;20029;-74
2024/01/06 02:39:23;;;;;;;72.70;48.78;;;;;;;3.28;100.00;94727.59;5052536;28;20166;-73
2024/01/06 02:41:49;;;;;;;64.95;36.92;;;;;;;3.29;100.00;94729.22;5047689;28;20409;-74
2024/01/06 02:44:15;;;;;;;36.70;27.08;;;;;;;3.31;100.00;94732.53;5053824;28;20082;-74
2024/01/06 02:46:40;;;;;;;16.15;14.45;;;;;;;3.28;100.00;94727.59;5054185;28;20021;-72
2024/01/06 02:49:06;;;;;;;13.63;11.57;;;;;;;3.26;100.00;94732.88;5046660;28;20021;-74
2024/01/06 02:51:32;;;;;;;13.32;11.93;;;;;;;3.30;100.00;94733.50;5050384;28;20022;-74
2024/01/06 02:53:57;;;;;;;10.68;9.75;;;;;;;3.28;100.00;94725.78;5049901;28;20079;-73
2024/01/06 02:56:23;;;;;;;7.18;6.57;;;;;;;3.27;100.00;94728.53;5049037;28;20100;-73
2024/01/06 02:58:48;;;;;;;8.18;7.38;;;;;;;3.25;100.00;94728.63;5050716;28;20037;-74
2024/01/06 03:01:13;;;;;;;9.80;8.90;;;;;;;3.25;100.00;94727.81;5051866;28;20151;-73
2024/01/06 03:03:39;;;;;;;8.00;7.20;;;;;;;3.26;100.00;94730.28;5048811;28;20142;-73
2024/01/06 03:06:04;;;;;;;10.57;9.48;;;;;;;3.26;100.00;94734.69;5051609;28;20472;-73
2024/01/06 03:08:29;;;;;;;7.80;7.10;;;;;;;3.27;100.00;94733.72;5048547;28;20502;-74
2024/01/06 03:10:55;;;;;;;10.88;8.90;;;;;;;3.29;100.00;94732.66;5052334;28;20097;-74
2024/01/06 03:13:20;;;;;;;8.88;7.85;;;;;;;3.27;100.00;94726.75;5042023;28;20029;-74
2024/01/06 03:15:46;;;;;;;16.70;15.07;;;;;;;3.26;100.00;94730.28;5048275;28;20455;-74
2024/01/06 03:18:11;;;;;;;12.43;11.23;;;;;;;3.28;100.00;94728.38;5050538;28;20474;-74
2024/01/06 03:20:36;;;;;;;9.40;8.13;;;;;;;3.27;100.00;94718.94;5050101;28;20100;-73
2024/01/06 03:23:02;;;;;;;8.23;7.45;;;;;;;3.25;100.00;94720.03;5049241;28;20027;-73
2024/01/06 03:25:27;;;;;;;8.75;7.90;;;;;;;3.25;100.00;94727.81;5050830;28;20040;-73
2024/01/06 03:27:53;;;;;;;8.02;6.22;;;;;;;3.25;100.00;94720.03;5044011;28;20021;-74
2024/01/06 03:30:18;;;;;;;7.07;6.57;;;;;;;3.28;100.00;94712.78;5050783;28;20060;-74
2024/01/06 03:32:43;;;;;;;8.77;8.02;;;;;;;3.26;100.00;94719.06;5050962;28;20047;-74
2024/01/06 03:35:09;;;;;;;41.22;36.88;;;;;;;3.26;100.00;94719.06;5040284;28;20028;-73
2024/01/06 03:37:34;;;;;;;31.52;28.85;;;;;;;3.28;100.00;94717.19;5047575;28;20595;-74
2024/01/06 03:40:00;;;;;;;23.75;21.50;;;;;;;3.27;100.00;94715.53;5051996;28;20079;-74
2024/01/06 03:42:25;;;;;;;12.45;11.27;;;;;;;3.26;100.00;94719.06;5047360;28;20079;-74
2024/01/06 03:44:50;;;;;;;8.80;8.00;;;;;;;3.28;100.00;94717.19;5054175;28;20646;-74
2024/01/06 03:47:16;;;;;;;5.53;5.13;;;;;;;3.35;100.00;94723.53;5054533;28;20044;-74
2024/01/06 03:49:41;;;;;;;6.13;5.60;;;;;;;3.32;100.00;94723.78;5050570;28;20048;-73
2024/01/06 03:52:06;;;;;;;5.65;5.15;;;;;;;3.32;100.00;94723.78;5042426;28;20192;-73
2024/01/06 03:54:32;;;;;;;4.55;4.25;;;;;;;3.32;100.00;94723.78;5051318;28;20079;-73
2024/01/06 03:56:57;;;;;;;5.25;4.75;;;;;;;3.36;100.00;94722.59;5028998;28;20091;-73
2024/01/06 03:59:22;;;;;;;5.28;4.88;;;;;;;3.43;100.00;94734.19;5051800;28;20119;-73
2024/01/06 04:01:48;;;;;;;4.85;4.07;;;;;;;3.51;100.00;94743.16;5046205;28;20055;-73
2024/01/06 04:04:13;;;;;;;4.93;4.55;;;;;;;3.50;100.00;94739.69;5045468;28;20051;-73
2024/01/06 04:06:39;;;;;;;3.85;3.58;;;;;;;3.76;100.00;94746.41;5045346;28;20020;-73
2024/01/06 04:09:05;;;;;;;5.07;4.72;;;;;;;3.76;100.00;94756.81;5047658;28;20377;-73
2024/01/06 04:11:30;;;;;;;10.43;9.32;;;;;;;3.69;100.00;94782.50;5051436;28;20044;-73
2024/01/06 04:13:56;;;;;;;8.27;7.47;;;;;;;3.66;100.00;94796.59;5045523;28;20028;-73
2024/01/06 04:16:21;;;;;;;6.53;5.93;;;;;;;3.68;100.00;94802.50;5049139;28;20022;-73
2024/01/06 04:18:46;;;;;;;3.30;3.10;;;;;;;3.83;100.00;94815.25;5045136;28;20489;-73
2024/01/06 04:21:12;;;;;;;3.10;2.90;;;;;;;3.92;100.00;94822.34;5049148;28;20028;-73
2024/01/06 04:23:37;;;;;;;3.97;3.67;;;;;;;3.80;100.00;94831.13;5045877;28;20493;-73
2024/01/06 04:26:04;;;;;;;4.30;4.00;;;;;;;3.78;100.00;94839.06;5045999;28;20096;-73
2024/01/06 04:28:30;;;;;;;3.25;3.05;;;;;;;3.84;100.00;94859.41;5047149;28;20025;-73
2024/01/06 04:30:55;;;;;;;3.58;3.28;;;;;;;3.90;100.00;94865.91;5047643;28;20021;-74
2024/01/06 04:33:21;;;;;;;3.58;3.38;;;;;;;3.83;100.00;94872.53;5048855;28;20021;-73
2024/01/06 04:35:46;;;;;;;3.45;3.25;;;;;;;3.87;100.00;94880.00;5047467;28;20039;-74
2024/01/06 04:38:11;;;;;;;4.40;4.10;;;;;;;3.81;100.00;94884.84;5051046;28;20053;-73
2024/01/06 04:40:37;;;;;;;3.78;3.47;;;;;;;3.82;100.00;94883.91;5051284;28;20029;-74
2024/01/06 04:43:03;;;;;;;3.85;3.55;;;;;;;3.79;100.00;94886.75;5041055;28;20037;-73
2024/01/06 04:45:29;;;;;;;3.05;2.85;;;;;;;3.86;100.00;94882.69;5045069;28;20074;-73
2024/01/06 04:47:54;;;;;;;3.75;3.08;;;;;;;3.98;100.00;94897.38;5048063;28;20071;-74
2024/01/06 04:50:20;;;;;;;3.38;3.17;;;;;;;3.95;100.00;94897.63;5044772;28;20033;-73
2024/01/06 04:52:45;;;;;;;2.90;2.80;;;;;;;3.89;100.00;94905.09;5047110;28;20021;-74
2024/01/06 04:55:10;;;;;;;2.92;2.72;;;;;;;3.86;100.00;94898.31;5050299;28;20017;-73
2024/01/06 04:57:36;;;;;;;2.67;2.58;;;;;;;3.88;100.00;94904.28;5049889;28;20025;-73
2024/01/06 05:00:03;;;;;;;2.65;2.45;;;;;;;3.88;100.00;94912.09;5051006;28;20025;-73
2024/01/06 05:02:28;;;;;;;2.92;2.83;;;;;;;3.90;100.00;94920.59;5047414;28;20103;-73
2024/01/06 05:04:54;;;;;;;3.10;2.25;;;;;;;3.92;100.00;94926.50;5048466;28;20018;-74
2024/01/06 05:07:19;;;;;;;3.15;2.95;;;;;;;3.87;100.00;94931.25;5044202;28;20017;-74
2024/01/06 05:09:44;;;;;;;2.55;2.35;;;;;;;3.83;100.00;94929.81;5052624;28;20520;-73
2024/01/06 05:12:10;;;;;;;2.88;2.67;;;;;;;3.92;100.00;94934.31;5046496;28;20033;-74
2024/01/06 05:14:35;;;;;;;2.72;2.60;;;;;;;3.91;100.00;94937.88;5048325;28;20029;-74
2024/01/06 05:17:01;;;;;;;2.92;2.72;;;;;;;3.96;100.00;94940.94;5046819;28;20017;-74
2024/01/06 05:19:26;;;;;;;3.22;2.95;;;;;;;3.86;100.00;94932.19;5047396;28;20029;-74
2024/01/06 05:21:51;;;;;;;3.22;3.03;;;;;;;3.81;100.00;94936.94;5045383;28;20478;-74
2024/01/06 05:24:19;;;;;;;3.33;2.90;;;;;;;3.84;100.00;94936.69;5043869;28;20029;-74
2024/01/06 05:26:44;;;;;;;3.55;3.35;;;;;;;3.92;100.00;94934.31;5050071;28;20025;-73
2024/01/06 05:29:09;;;;;;;3.40;3.20;;;;;;;3.84;100.00;94926.25;5046493;28;20023;-73
2024/01/06 05:31:35;;;;;;;4.05;3.72;;;;;;;3.87;100.00;94926.88;5044921;28;20446;-74
2024/01/06 05:34:00;;;;;;;4.75;4.47;;;;;;;3.92;100.00;94929.13;5048012;28;20206;-74
2024/01/06 05:36:26;;;;;;;4.53;4.22;;;;;;;3.83;100.00;94932.41;5050663;28;20029;-73
2024/01/06 05:38:51;;;;;;;4.38;4.07;;;;;;;3.85;100.00;94931.38;5048482;28;20043;-73
2024/01/06 05:41:16;;;;;;;3.50;3.30;;;;;;;3.87;100.00;94933.88;5042758;28;20017;-74
2024/01/06 05:43:42;;;;;;;3.40;3.20;;;;;;;3.81;100.00;94931.72;5049373;28;20033;-74
2024/01/06 05:46:08;;;;;;;3.40;3.20;;;;;;;3.85;100.00;94935.72;5046403;28;20211;-73
2024/01/06 05:48:33;;;;;;;3.25;3.05;;;;;;;3.87;100.00;94939.06;5047666;28;20094;-74
2024/01/06 05:50:58;;;;;;;3.63;3.38;;;;;;;3.75;100.00;94940.81;5050175;28;20375;-74
2024/01/06 05:53:24;;;;;;;3.35;2.90;;;;;;;3.73;100.00;94943.56;5046617;28;20028;-74
2024/01/06 05:55:50;;;;;;;3.53;3.33;;;;;;;3.77;100.00;94943.31;5046673;28;20021;-74
2024/01/06 05:58:16;;;;;;;3.20;3.00;;;;;;;3.83;100.00;94951.50;5047708;28;20032;-74
2024/01/06 06:00:41;;;;;;;3.03;2.83;;;;;;;3.85;100.00;94948.75;5044841;28;20029;-74
2024/01/06 06:03:07;;;;;;;3.00;2.83;;;;;;;3.94;100.00;94963.69;5046614;28;20091;-73
2024/01/06 06:05:33;;;;;;;3.35;3.15;;;;;;;3.79;100.00;94967.47;5045379;28;20029;-74
2024/01/06 06:07:58;;;;;;;3.10;2.90;;;;;;;3.80;100.00;94966.50;5047852;28;20039;-74
2024/01/06 06:10:29;;;;;;;3.17;2.97;;;;;;;3.80;100.00;94966.50;5044415;28;20443;-73
2024/01/06 06:12:55;;;;;;;4.60;4.20;;;;;;;3.69;100.00;94976.00;5046246;28;20031;-74
2024/01/06 06:15:20;;;;;;;5.38;4.88;;;;;;;3.59;100.00;94980.22;5047745;28;20108;-73
2024/01/06 06:17:46;;;;;;;4.20;3.90;;;;;;;3.56;100.00;94985.66;5047208;28;20100;-74
2024/01/06 06:20:11;;;;;;;2.88;2.70;;;;;;;3.64;100.00;94977.28;5049845;28;20573;-74
2024/01/06 06:22:37;;;;;;;2.78;2.60;;;;;;;3.75;100.00;94981.66;5047133;28;20030;-73
2024/01/06 06:25:03;;;;;;;2.33;2.22;;;;;;;3.75;100.00;94986.88;5046435;28;20025;-75
2024/01/06 06:27:29;;;;;;;2.00;1.90;;;;;;;3.89;100.00;94970.19;5044585;28;20034;-75
2024/01/06 06:29:56;;;;;;;2.00;1.83;;;;;;;3.81;100.00;94968.16;5048735;28;20024;-74
2024/01/06 06:32:21;;;;;;;1.60;1.60;;;;;;;3.86;100.00;94961.66;5045659;28;20018;-73
2024/01/06 06:34:46;;;;;;;2.33;2.20;;;;;;;3.89;100.00;94973.63;5048387;28;20032;-73
2024/01/06 06:37:12;;;;;;;1.80;1.70;;;;;;;3.80;100.00;94982.13;5048603;28;20111;-74
2024/01/06 06:39:37;;;;;;;2.08;1.98;;;;;;;3.85;100.00;94966.97;5043305;28;20029;-73
2024/01/06 06:42:03;;;;;;;1.40;1.30;;;;;;;3.79;100.00;94970.06;5046704;28;20032;-73
2024/01/06 06:44:29;;;;;;;1.95;1.85;;;;;;;3.72;100.00;94961.91;5043589;28;20025;-74
2024/01/06 06:46:55;;;;;;;1.50;1.50;;;;;;;3.81;100.00;94960.34;5045588;28;20021;-73
2024/01/06 06:49:20;;;;;;;1.77;1.67;;;;;;;3.77;100.00;94969.34;5049129;28;20017;-74
2024/01/06 06:51:48;;;;;;;1.75;1.65;;;;;;;3.66;100.00;94975.38;5065080;28;20024;-73
2024/01/06 06:54:17;;;;;;;1.58;1.58;;;;;;;3.62;100.00;94982.59;5048273;28;20469;-74
2024/01/06 06:56:43;;;;;;;1.73;1.63;;;;;;;3.66;100.00;94988.41;5050916;28;20039;-74
2024/01/06 06:59:08;;;;;;;2.15;2.00;;;;;;;3.64;100.00;94987.69;5047789;28;20025;-74
2024/01/06 07:01:35;;;;;;;2.05;1.95;;;;;;;3.64;100.00;94995.50;5051480;28;20500;-73
2024/01/06 07:04:00;;;;;;;2.10;2.00;;;;;;;3.70;100.00;94997.63;5041774;28;20052;-74
2024/01/06 07:06:26;;;;;;;2.10;2.00;;;;;;;3.70;100.00;95003.69;5051821;28;20025;-74
2024/01/06 07:08:51;;;;;;;2.28;2.17;;;;;;;3.73;100.00;94995.63;5039868;28;20056;-75
2024/01/06 07:11:19;;;;;;;2.72;2.55;;;;;;;3.79;100.00;95001.31;5046556;28;20061;-72
2024/01/06 07:13:44;;;;;;;2.92;2.72;;;;;;;3.91;100.00;94996.94;5047158;28;20025;-73
2024/01/06 07:16:11;;;;;;;2.85;2.75;;;;;;;3.87;100.00;95006.78;5046131;28;20063;-73
2024/01/06 07:18:37;;;;;;;2.30;2.20;;;;;;;3.77;100.00;95006.66;5054997;28;20090;-73
2024/01/06 07:21:06;;;;;;;2.60;2.40;;;;;;;3.81;100.00;95009.84;5054892;28;20493;-73
2024/01/06 07:23:31;;;;;;;2.90;2.70;;;;;;;3.71;100.00;95013.16;5046589;28;20017;-74
2024/01/06 07:25:57;;;;;;;3.20;3.08;;;;;;;3.71;100.00;95020.97;5052346;28;20033;-74
2024/01/06 07:28:23;;;;;;;3.53;3.33;;;;;;;3.82;100.00;95012.34;5051935;28;20036;-74
2024/01/06 07:30:48;;;;;;;2.58;2.47;;;;;;;3.81;100.00;95012.44;5047214;28;20017;-73
2024/01/06 07:33:14;;;;;;;2.92;2.72;;;;;;;3.90;100.00;95010.91;5050404;28;20108;-73
2024/01/06 07:35:43;;;;;;;2.35;2.25;;;;;;;3.81;100.00;95015.03;5046388;28;20440;-73
2024/01/06 07:38:10;;;;;;;3.15;2.95;;;;;;;3.85;100.00;95014.69;5043880;28;20036;-73
2024/01/06 07:40:35;;;;;;;2.83;2.72;;;;;;;3.91;100.00;95016.00;5051256;28;20541;-73
2024/01/06 07:43:01;;;;;;;3.28;3.17;;;;;;;3.78;100.00;95020.47;5050660;28;20053;-74
2024/01/06 07:45:27;;;;;;;2.90;2.70;;;;;;;3.77;100.00;95018.81;5048366;28;20037;-73
2024/01/06 07:47:52;;;;;;;2.42;2.30;;;;;;;3.81;100.00;95015.88;5049217;28;20051;-73
2024/01/06 07:50:18;;;;;;;2.50;2.40;;;;;;;3.84;100.00;95022.63;5051413;28;20356;-73
2024/01/06 07:52:43;;;;;;;2.35;2.15;;;;;;;3.83;100.00;95018.34;5051313;28;20048;-73
2024/01/06 07:55:09;;;;;;;2.13;2.03;;;;;;;3.70;100.00;95024.50;5051437;28;20735;-73
2024/01/06 07:57:34;;;;;;;2.47;2.38;;;;;;;3.82;100.00;95021.91;5048609;28;20589;-73
2024/01/06 08:00:00;;;;;;;2.10;2.00;;;;;;;3.82;100.00;95024.50;5048434;28;20018;-73
2024/01/06 08:02:26;;;;;;;2.47;2.35;;;;;;;3.78;100.00;95026.53;5046118;28;20033;-73
2024/01/06 08:04:51;;;;;;;2.50;2.30;;;;;;;3.85;100.00;95024.28;5049438;28;20048;-73
2024/01/06 08:07:16;;;;;;;4.05;2.35;;;;;;;3.69;100.00;95029.81;5052724;28;20051;-74
2024/01/06 08:09:42;;;;;;;2.28;2.17;;;;;;;3.72;100.00;95035.63;5049323;28;20021;-73
2024/01/06 08:12:08;;;;;;;2.33;2.22;;;;;;;3.83;100.00;95037.44;5048453;28;20083;-73
2024/01/06 08:14:33;;;;;;;3.13;2.42;;;;;;;3.78;100.00;95039.56;5053937;28;20082;-73
2024/01/06 08:16:58;;;;;;;13.40;9.63;;;;;;;3.73;100.00;95032.09;5048251;28;20032;-73
2024/01/06 08:19:24;;;;;;;2.53;2.42;;;;;;;3.72;100.00;95029.59;5047779;28;20017;-74
2024/01/06 08:21:49;;;;;;;2.45;2.35;;;;;;;3.80;100.00;95034.22;5049742;28;20449;-73
2024/01/06 08:24:15;;;;;;;2.38;2.28;;;;;;;3.81;100.00;95041.94;5046328;28;20461;-74
2024/01/06 08:26:40;;;;;;;2.13;2.03;;;;;;;3.77;100.00;95042.25;5050964;28;20025;-73
2024/01/06 08:29:05;;;;;;;2.10;2.00;;;;;;;3.79;100.00;95037.75;5050618;28;20025;-72
2024/01/06 08:31:31;;;;;;;2.10;2.00;;;;;;;3.94;100.00;95036.59;5052929;28;20013;-73
2024/01/06 08:33:56;;;;;;;2.13;2.03;;;;;;;3.79;100.00;95038.63;5050018;28;20108;-73
2024/01/06 08:36:22;;;;;;;2.47;2.28;;;;;;;3.82;100.00;95040.13;5046375;28;20529;-73
2024/01/06 08:38:47;;;;;;;2.33;2.22;;;;;;;3.90;100.00;95043.00;5050428;28;20025;-73
2024/01/06 08:41:12;;;;;;;2.30;2.20;;;;;;;3.80;100.00;95044.63;5047629;28;20017;-73
2024/01/06 08:43:38;;;;;;;7.43;2.10;;;;;;;3.97;100.00;95051.16;5047811;28;20036;-73
2024/01/06 08:46:03;;;;;;;3.05;2.85;;;;;;;3.87;100.00;95045.84;5049895;28;20025;-73
2024/01/06 08:48:29;;;;;;;2.95;2.70;;;;;;;3.84;100.00;95046.06;5047404;28;20048;-73
2024/01/06 08:50:55;;;;;;;2.58;2.38;;;;;;;4.03;100.00;95050.72;5045894;28;20103;-73
2024/01/06 08:53:20;;;;;;;2.42;2.22;;;;;;;4.00;100.00;95041.34;5048738;28;20025;-73
2024/01/06 08:55:45;;;;;;;2.95;2.75;;;;;;;3.99;100.00;95049.28;5047894;28;20519;-73
2024/01/06 08:58:11;;;;;;;2.30;2.13;;;;;;;3.96;100.00;95070.34;5048622;28;20561;-73
2024/01/06 09:00:36;;;;;;;2.50;2.40;;;;;;;3.95;100.00;95072.13;5048757;28;20442;-73
2024/01/06 09:03:02;;;;;;;3.40;2.17;;;;;;;3.81;100.00;95062.75;5048217;28;20123;-71
2024/01/06 09:05:27;;;;;;;2.50;2.30;;;;;;;3.84;100.00;95074.69;5056283;28;20029;-73
2024/01/06 09:07:52;;;;;;;2.95;2.10;;;;;;;3.77;100.00;95094.34;5050155;28;20524;-73
2024/01/06 09:10:19;;;;;;;2.72;2.55;;;;;;;3.88;100.00;95086.56;5047260;28;20507;-74
2024/01/06 09:12:44;;;;;;;3.33;2.42;;;;;;;3.90;100.00;95086.44;5039649;28;20022;-74
2024/01/06 09:15:09;;;;;;;2.30;2.13;;;;;;;3.95;100.00;95085.16;5046635;28;20040;-73
2024/01/06 09:17:35;;;;;;;2.30;2.20;;;;;;;3.96;100.00;95079.00;5045341;28;20063;-72
2024/01/06 09:20:01;;;;;;;2.35;2.15;;;;;;;3.93;100.00;95081.00;5042291;28;20025;-72
2024/01/06 09:22:27;;;;;;;2.67;2.33;;;;;;;4.02;100.00;95080.31;5037953;28;20055;-74
2024/01/06 09:24:52;;;;;;;2.22;2.05;;;;;;;3.95;100.00;95084.31;5041686;28;20041;-74
2024/01/06 09:27:18;;;;;;;2.10;2.00;;;;;;;3.99;100.00;95088.38;5045632;28;20024;-74
2024/01/06 09:29:44;;;;;;;3.20;3.00;;;;;;;4.02;100.00;95093.34;5041535;28;20030;-73
2024/01/06 09:32:09;;;;;;;3.17;2.97;;;;;;;3.90;100.00;95092.50;5041716;28;20032;-71
2024/01/06 09:34:34;;;;;;;4.22;3.83;;;;;;;3.81;100.00;95108.78;5048762;28;20501;-72
2024/01/06 09:37:00;;;;;;;7.55;2.45;;;;;;;3.92;100.00;95108.81;5044129;28;20025;-72
2024/01/06 09:39:25;;;;;;;2.55;2.05;;;;;;;3.85;100.00;95100.63;5042001;28;20021;-71
2024/01/06 09:41:51;;;;;;;2.95;2.42;;;;;;;3.96;100.00;95109.41;5050075;28;20025;-72
2024/01/06 09:44:17;;;;;;;4.15;2.90;;;;;;;3.94;100.00;95099.13;5045846;28;20753;-71
2024/01/06 09:46:43;;;;;;;6.47;5.13;;;;;;;3.77;100.00;95110.81;5049228;28;20059;-70
2024/01/06 09:49:09;;;;;;;3.45;2.70;;;;;;;3.94;100.00;95093.06;5045668;28;20037;-71
2024/01/06 09:51:39;;;;;;;3.85;3.38;;;;;;;3.97;100.00;95096.28;5043036;28;20107;-75
2024/01/06 09:54:08;;;;;;;3.45;3.15;;;;;;;3.82;100.00;95097.41;5047701;28;20023;-74
2024/01/06 09:56:34;;;;;;;2.78;2.58;;;;;;;3.84;100.00;95111.16;5046917;28;20417;-72
2024/01/06 09:59:00;;;;;;;4.30;3.88;;;;;;;3.93;100.00;95118.31;5044947;28;20036;-72
2024/01/06 10:01:25;;;;;;;8.82;7.25;;;;;;;3.86;100.00;95123.13;5043456;28;20030;-73
2024/01/06 10:03:51;;;;;;;5.43;3.35;;;;;;;3.80;100.00;95125.34;5048234;28;20032;-73
2024/01/06 10:06:18;;;;;;;4.50;2.50;;;;;;;3.86;100.00;95124.88;5043445;28;20036;-72
2024/01/06 10:08:50;;;;;;;3.38;2.95;;;;;;;3.93;100.00;95130.47;5047870;28;20046;-72
2024/01/06 10:11:16;;;;;;;2.53;2.42;;;;;;;3.87;100.00;95123.97;5048707;28;20441;-74
2024/01/06 10:13:41;;;;;;;2.50;2.40;;;;;;;3.91;100.00;95120.19;5051014;28;20032;-73
2024/01/06 10:16:07;;;;;;;2.53;2.35;;;;;;;3.88;100.00;95110.00;5040256;28;20096;-73
2024/01/06 10:18:34;;;;;;;3.08;2.70;;;;;;;3.85;100.00;95111.06;5049612;28;20082;-71
2024/01/06 10:20:59;;;;;;;3.28;2.88;;;;;;;3.87;100.00;95108.34;5050634;28;20527;-71
2024/01/06 10:23:29;;;;;;;4.82;2.85;;;;;;;3.87;100.00;95103.94;5046523;28;20052;-72
2024/01/06 10:25:55;;;;;;;2.65;2.40;;;;;;;3.89;100.00;95097.78;5046808;28;20032;-73
2024/01/06 10:28:23;;;;;;;2.67;2.25;;;;;;;3.91;100.00;95117.59;5041418;28;20021;-74
2024/01/06 10:30:53;;;;;;;9.57;5.85;;;;;;;3.79;100.00;95102.88;5043414;28;20539;-73
2024/01/06 10:33:23;;;;;;;4.07;3.13;;;;;;;3.73;100.00;95101.53;5047593;28;20024;-73
2024/01/06 10:35:49;;;;;;;2.55;2.30;;;;;;;3.77;100.00;95109.97;5044177;28;20120;-72
2024/01/06 10:38:15;;;;;;;3.00;2.80;;;;;;;3.84;100.00;95112.00;5042225;28;20052;-73
2024/01/06 10:40:57;;;;;;;2.60;2.35;;;;;;;3.80;100.00;95107.13;5044994;28;20108;-72
2024/01/06 10:43:26;;;;;;;2.33;2.22;;;;;;;3.83;100.00;95110.34;5041844;28;20031;-72
2024/01/06 10:45:53;;;;;;;6.13;3.15;;;;;;;3.94;100.00;95103.47;5048843;28;20041;-72
2024/01/06 10:48:20;;;;;;;2.40;2.20;;;;;;;3.91;100.00;95109.78;5045731;28;20083;-72
2024/01/06 10:50:47;;;;;;;3.42;2.88;;;;;;;3.99;100.00;95111.81;5044402;28;20029;-72
2024/01/06 10:53:14;;;;;;;7.82;2.30;;;;;;;3.96;100.00;95097.22;5048280;28;20033;-73
2024/01/06 10:55:41;;;;;;;3.47;2.80;;;;;;;3.91;100.00;95107.16;5046889;28;20033;-72
2024/01/06 10:58:07;;;;;;;3.92;2.83;;;;;;;3.91;100.00;95094.16;5047168;28;20024;-73
2024/01/06 11:00:33;;;;;;;2.15;2.05;;;;;;;3.91;100.00;95108.94;5043013;28;20530;-73
2024/01/06 11:02:59;;;;;;;2.58;2.38;;;;;;;3.87;100.00;95113.56;5044132;28;20039;-71
2024/01/06 11:05:25;;;;;;;2.72;2.53;;;;;;;4.04;100.00;95103.63;5044440;28;20032;-71
2024/01/06 11:07:55;;;;;;;2.72;2.53;;;;;;;3.90;100.00;95095.09;5050675;28;20035;-71
2024/01/06 11:10:23;;;;;;;2.22;2.03;;;;;;;4.08;100.00;95105.88;5039355;28;20039;-70
2024/01/06 11:13:08;;;;;;;4.07;1.95;;;;;;;4.07;100.00;95087.75;5050148;28;20024;-71
2024/01/06 11:16:05;;;;;;;2.65;2.22;;;;;;;3.98;100.00;95086.69;5045730;28;20135;-71
2024/01/06 11:18:37;;;;;;;4.00;2.95;;;;;;;4.04;100.00;95088.00;5029705;28;20137;-71
2024/01/06 11:21:21;;;;;;;3.35;2.90;;;;;;;4.09;100.00;95084.09;5045881;28;20037;-71
2024/01/06 11:24:26;;;;;;;2.72;2.45;;;;;;;3.97;100.00;95091.06;5038024;28;20026;-71